createdAt,value
2018-05-29T00:02:14.200Z,23.98
2018-05-29T00:04:43.054Z,23.91
2018-05-29T00:07:11.899Z,23.84
2018-05-29T00:09:40.765Z,23.80
2018-05-29T00:12:09.600Z,23.74
2018-05-29T00:14:38.453Z,23.74
2018-05-29T00:17:07.298Z,23.72
2018-05-29T00:19:36.185Z,23.73
2018-05-29T00:22:05.039Z,23.70
2018-05-29T00:24:33.879Z,23.69
2018-05-29T00:27:02.719Z,23.66
2018-05-29T00:29:31.595Z,23.58
2018-05-29T00:32:00.434Z,23.59
2018-05-29T00:34:29.273Z,23.57
2018-05-29T00:36:58.150Z,23.56
2018-05-29T00:39:27.005Z,23.52
2018-05-29T00:41:55.841Z,23.49
2018-05-29T00:44:24.687Z,23.46
2018-05-29T00:46:53.538Z,23.41
2018-05-29T00:49:22.381Z,23.37
2018-05-29T00:51:51.248Z,23.34
2018-05-29T00:54:20.110Z,23.27
2018-05-29T00:56:48.963Z,23.22
2018-05-29T00:59:17.799Z,23.18
2018-05-29T01:01:46.669Z,23.28
2018-05-29T01:04:15.538Z,23.16
2018-05-29T01:06:44.349Z,23.14
2018-05-29T01:09:13.246Z,23.17
2018-05-29T01:11:42.076Z,22.99
2018-05-29T01:14:10.936Z,22.91
2018-05-29T01:16:39.771Z,22.90
2018-05-29T01:19:08.620Z,22.90
2018-05-29T01:21:37.477Z,22.84
2018-05-29T01:24:06.367Z,22.77
2018-05-29T01:26:35.200Z,22.70
2018-05-29T01:29:04.059Z,22.69
2018-05-29T01:31:32.877Z,22.71
2018-05-29T01:34:01.733Z,22.66
2018-05-29T01:36:30.552Z,22.64
2018-05-29T01:38:59.409Z,22.57
2018-05-29T01:41:28.253Z,22.53
2018-05-29T01:43:57.109Z,22.49
2018-05-29T01:46:25.968Z,22.52
2018-05-29T01:48:54.785Z,22.57
2018-05-29T01:51:23.642Z,22.71
2018-05-29T01:53:52.487Z,22.51
2018-05-29T01:56:21.349Z,22.73
2018-05-29T01:58:50.187Z,22.56
2018-05-29T02:01:19.158Z,22.49
2018-05-29T02:03:47.924Z,22.44
2018-05-29T02:06:16.779Z,22.41
2018-05-29T02:08:45.601Z,22.39
2018-05-29T02:11:14.463Z,22.38
2018-05-29T02:13:43.296Z,22.35
2018-05-29T02:16:12.167Z,22.27
2018-05-29T02:18:41.023Z,22.26
2018-05-29T02:21:09.881Z,22.25
2018-05-29T02:23:38.739Z,22.24
2018-05-29T02:26:07.646Z,22.17
2018-05-29T02:28:36.533Z,22.15
2018-05-29T02:31:05.389Z,22.11
2018-05-29T02:33:34.238Z,22.04
2018-05-29T02:36:03.110Z,22.01
2018-05-29T02:38:31.977Z,21.98
2018-05-29T02:41:00.846Z,21.97
2018-05-29T02:43:29.693Z,21.94
2018-05-29T02:45:58.542Z,21.88
2018-05-29T02:48:27.416Z,21.86
2018-05-29T02:50:56.243Z,22.03
2018-05-29T02:53:25.097Z,21.91
2018-05-29T02:55:53.949Z,21.83
2018-05-29T02:58:22.813Z,21.99
2018-05-29T03:00:51.678Z,21.88
2018-05-29T03:03:20.539Z,21.87
2018-05-29T03:05:49.383Z,21.96
2018-05-29T03:08:18.225Z,21.75
2018-05-29T03:10:47.070Z,21.78
2018-05-29T03:13:16.043Z,21.76
2018-05-29T03:15:44.897Z,21.79
2018-05-29T03:18:13.753Z,21.81
2018-05-29T03:20:42.595Z,21.83
2018-05-29T03:23:11.499Z,21.77
2018-05-29T03:25:40.371Z,21.73
2018-05-29T03:28:09.188Z,21.64
2018-05-29T03:30:38.065Z,21.81
2018-05-29T03:33:06.886Z,21.92
2018-05-29T03:35:35.746Z,21.73
2018-05-29T03:38:04.597Z,21.67
2018-05-29T03:40:33.442Z,21.67
2018-05-29T03:43:02.321Z,21.61
2018-05-29T03:45:31.204Z,21.64
2018-05-29T03:48:00.059Z,21.61
2018-05-29T03:50:28.899Z,21.55
2018-05-29T03:52:57.725Z,21.57
2018-05-29T03:55:26.572Z,21.60
2018-05-29T03:57:55.378Z,21.61
2018-05-29T04:00:24.245Z,21.58
2018-05-29T04:02:53.061Z,21.56
2018-05-29T04:05:21.914Z,21.74
2018-05-29T04:07:50.792Z,21.61
2018-05-29T04:10:19.607Z,21.66
2018-05-29T04:12:48.492Z,21.70
2018-05-29T04:15:17.328Z,21.71
2018-05-29T04:17:46.172Z,21.69
2018-05-29T04:20:15.041Z,21.72
2018-05-29T04:22:43.901Z,21.76
2018-05-29T04:25:12.731Z,21.77
2018-05-29T04:27:41.595Z,21.77
2018-05-29T04:30:10.437Z,22.00
2018-05-29T04:32:39.301Z,21.90
2018-05-29T04:35:08.143Z,21.86
2018-05-29T04:37:36.963Z,21.92
2018-05-29T04:40:05.810Z,21.95
2018-05-29T04:42:34.664Z,21.96
2018-05-29T04:45:03.547Z,21.98
2018-05-29T04:47:32.377Z,22.04
2018-05-29T04:50:01.227Z,22.25
2018-05-29T04:52:30.083Z,22.15
2018-05-29T04:54:58.929Z,22.17
2018-05-29T04:57:27.801Z,22.15
2018-05-29T04:59:56.640Z,22.36
2018-05-29T05:02:25.498Z,22.20
2018-05-29T05:04:54.460Z,22.26
2018-05-29T05:07:23.338Z,22.29
2018-05-29T05:09:52.157Z,22.31
2018-05-29T05:12:21.044Z,22.35
2018-05-29T05:14:49.872Z,22.38
2018-05-29T05:17:18.743Z,22.44
2018-05-29T05:19:47.588Z,22.47
2018-05-29T05:22:16.524Z,22.46
2018-05-29T05:24:45.362Z,22.48
2018-05-29T05:27:14.191Z,22.52
2018-05-29T05:29:43.056Z,22.60
2018-05-29T05:32:11.912Z,22.83
2018-05-29T05:34:40.780Z,22.71
2018-05-29T05:37:09.622Z,22.79
2018-05-29T05:39:38.483Z,22.86
2018-05-29T05:42:07.320Z,22.95
2018-05-29T05:44:36.181Z,23.06
2018-05-29T05:47:05.091Z,23.13
2018-05-29T05:49:33.873Z,23.28
2018-05-29T05:52:02.721Z,23.40
2018-05-29T05:54:31.561Z,23.52
2018-05-29T05:57:00.406Z,23.65
2018-05-29T05:59:29.242Z,23.81
2018-05-29T06:01:58.102Z,24.04
2018-05-29T06:04:26.938Z,24.23
2018-05-29T06:06:56.985Z,24.54
2018-05-29T06:09:25.868Z,24.92
2018-05-29T06:11:54.717Z,25.19
2018-05-29T06:14:23.579Z,25.51
2018-05-29T06:16:52.444Z,25.84
2018-05-29T06:19:21.289Z,26.18
2018-05-29T06:21:50.177Z,27.17
2018-05-29T06:24:19.051Z,28.75
2018-05-29T06:26:47.846Z,30.27
2018-05-29T06:29:16.691Z,31.30
2018-05-29T06:31:45.525Z,32.37
2018-05-29T06:34:14.370Z,33.37
2018-05-29T06:36:43.251Z,34.22
2018-05-29T06:39:12.129Z,34.80
2018-05-29T06:41:40.965Z,35.36
2018-05-29T06:44:09.824Z,35.66
2018-05-29T06:46:38.657Z,35.68
2018-05-29T06:49:07.495Z,36.05
2018-05-29T06:51:36.385Z,36.37
2018-05-29T06:54:05.257Z,36.12
2018-05-29T06:56:34.146Z,36.15
2018-05-29T06:59:03.233Z,36.84
2018-05-29T07:01:32.063Z,37.16
2018-05-29T07:04:01.030Z,37.38
2018-05-29T07:06:29.832Z,36.91
2018-05-29T07:08:58.698Z,37.84
2018-05-29T07:11:27.521Z,38.11
2018-05-29T07:13:56.380Z,38.19
2018-05-29T07:16:25.220Z,38.63
2018-05-29T07:18:54.079Z,38.55
2018-05-29T07:21:22.921Z,38.47
2018-05-29T07:23:51.769Z,39.00
2018-05-29T07:26:20.601Z,39.63
2018-05-29T07:28:49.474Z,39.70
2018-05-29T07:31:18.352Z,39.54
2018-05-29T07:33:47.205Z,39.83
2018-05-29T07:36:16.053Z,40.09
2018-05-29T07:38:44.938Z,40.01
2018-05-29T07:41:13.818Z,40.55
2018-05-29T07:43:42.705Z,40.09
2018-05-29T07:46:11.536Z,40.54
2018-05-29T07:48:40.397Z,40.04
2018-05-29T07:51:09.268Z,40.80
2018-05-29T07:53:38.187Z,40.81
2018-05-29T07:56:07.027Z,41.14
2018-05-29T07:58:35.867Z,40.74
2018-05-29T08:01:04.729Z,40.72
2018-05-29T08:03:33.621Z,39.86
2018-05-29T08:06:02.480Z,40.97
2018-05-29T08:08:31.324Z,41.22
2018-05-29T08:11:00.184Z,41.30
2018-05-29T08:13:29.033Z,40.74
2018-05-29T08:15:57.867Z,40.85
2018-05-29T08:18:26.749Z,40.79
2018-05-29T08:20:55.562Z,41.23
2018-05-29T08:23:24.500Z,41.43
2018-05-29T08:25:53.355Z,41.41
2018-05-29T08:28:22.206Z,41.81
2018-05-29T08:30:51.032Z,41.89
2018-05-29T08:33:19.891Z,41.88
2018-05-29T08:35:48.731Z,42.30
2018-05-29T08:38:17.823Z,42.28
2018-05-29T08:40:46.682Z,41.97
2018-05-29T08:43:15.582Z,41.90
2018-05-29T08:45:44.444Z,41.75
2018-05-29T08:48:13.262Z,42.23
2018-05-29T08:50:42.144Z,42.45
2018-05-29T08:53:11.144Z,42.49
2018-05-29T08:55:40.023Z,42.41
2018-05-29T08:58:08.919Z,42.29
2018-05-29T09:00:37.772Z,42.16
2018-05-29T09:03:06.611Z,41.25
2018-05-29T09:05:35.468Z,41.00
2018-05-29T09:08:04.383Z,41.23
2018-05-29T09:10:33.262Z,41.73
2018-05-29T09:13:02.154Z,41.14
2018-05-29T09:15:31.046Z,41.31
2018-05-29T09:17:59.918Z,40.49
2018-05-29T09:20:28.747Z,40.60
2018-05-29T09:22:57.573Z,40.42
2018-05-29T09:25:26.411Z,40.00
2018-05-29T09:27:55.397Z,40.44
2018-05-29T09:30:24.174Z,40.62
2018-05-29T09:32:53.084Z,41.16
2018-05-29T09:35:21.943Z,41.38
2018-05-29T09:37:50.860Z,41.41
2018-05-29T09:40:19.795Z,41.93
2018-05-29T09:42:48.642Z,42.18
2018-05-29T09:45:17.526Z,42.41
2018-05-29T09:47:46.412Z,42.59
2018-05-29T09:50:15.296Z,43.02
2018-05-29T09:52:44.177Z,43.25
2018-05-29T09:55:13.032Z,43.18
2018-05-29T09:57:41.876Z,43.04
2018-05-29T10:00:10.746Z,42.62
2018-05-29T10:02:39.604Z,42.70
2018-05-29T10:05:09.301Z,42.83
2018-05-29T10:07:38.169Z,43.01
2018-05-29T10:10:07.054Z,42.08
2018-05-29T10:12:35.929Z,40.60
2018-05-29T10:15:04.853Z,40.23
2018-05-29T10:17:33.703Z,41.71
2018-05-29T10:20:02.547Z,41.06
2018-05-29T10:22:31.435Z,40.49
2018-05-29T10:25:00.312Z,40.71
2018-05-29T10:27:29.152Z,40.58
2018-05-29T10:29:58.244Z,40.84
2018-05-29T10:32:27.083Z,41.26
2018-05-29T10:34:55.962Z,41.82
2018-05-29T10:37:24.828Z,42.16
2018-05-29T10:39:53.686Z,40.39
2018-05-29T10:42:22.545Z,39.93
2018-05-29T10:44:51.415Z,39.34
2018-05-29T10:47:20.281Z,39.46
2018-05-29T10:49:49.110Z,39.41
2018-05-29T10:52:17.988Z,39.80
2018-05-29T10:54:46.977Z,39.87
2018-05-29T10:57:15.776Z,40.30
2018-05-29T10:59:44.644Z,39.97
2018-05-29T11:02:13.541Z,39.23
2018-05-29T11:04:42.364Z,38.54
2018-05-29T11:07:11.290Z,38.13
2018-05-29T11:09:40.154Z,38.31
2018-05-29T11:12:08.997Z,38.52
2018-05-29T11:14:37.889Z,39.08
2018-05-29T11:17:06.797Z,38.86
2018-05-29T11:19:35.637Z,39.29
2018-05-29T11:22:04.496Z,39.41
2018-05-29T11:24:33.336Z,38.88
2018-05-29T11:27:02.202Z,39.38
2018-05-29T11:29:31.031Z,39.61
2018-05-29T11:31:59.905Z,39.92
2018-05-29T11:34:28.739Z,39.74
2018-05-29T11:36:57.585Z,39.59
2018-05-29T11:39:26.463Z,40.08
2018-05-29T11:41:55.357Z,41.43
2018-05-29T11:44:24.231Z,41.13
2018-05-29T11:46:53.163Z,40.68
2018-05-29T11:49:22.012Z,40.74
2018-05-29T11:51:50.852Z,40.10
2018-05-29T11:54:19.686Z,39.37
2018-05-29T11:56:48.505Z,38.74
2018-05-29T11:59:17.378Z,37.78
2018-05-29T12:01:46.233Z,37.50
2018-05-29T12:04:15.063Z,37.09
2018-05-29T12:06:43.955Z,37.22
2018-05-29T12:09:12.808Z,37.66
2018-05-29T12:11:41.715Z,37.41
2018-05-29T12:14:10.689Z,37.10
2018-05-29T12:16:39.544Z,36.73
2018-05-29T12:19:08.382Z,36.27
2018-05-29T12:21:37.237Z,35.72
2018-05-29T12:24:06.090Z,35.71
2018-05-29T12:26:34.949Z,35.84
2018-05-29T12:29:04.544Z,36.07
2018-05-29T12:31:33.496Z,36.58
2018-05-29T12:34:02.341Z,36.78
2018-05-29T12:36:31.230Z,36.66
2018-05-29T12:39:00.087Z,36.42
2018-05-29T12:41:28.926Z,36.13
2018-05-29T12:43:57.794Z,35.83
2018-05-29T12:46:26.735Z,35.60
2018-05-29T12:48:55.553Z,35.65
2018-05-29T12:51:24.388Z,35.86
2018-05-29T12:53:53.253Z,36.27
2018-05-29T12:56:22.176Z,36.17
2018-05-29T12:58:51.022Z,36.33
2018-05-29T13:01:19.870Z,36.21
2018-05-29T13:03:48.765Z,35.73
2018-05-29T13:06:17.707Z,35.40
2018-05-29T13:08:46.615Z,35.28
2018-05-29T13:11:15.537Z,35.21
2018-05-29T13:13:44.378Z,35.02
2018-05-29T13:16:13.209Z,35.33
2018-05-29T13:18:42.075Z,35.58
2018-05-29T13:21:10.947Z,35.66
2018-05-29T13:23:39.831Z,35.60
2018-05-29T13:26:08.660Z,35.44
2018-05-29T13:28:37.520Z,35.04
2018-05-29T13:31:06.409Z,34.99
2018-05-29T13:33:35.235Z,34.76
2018-05-29T13:36:04.112Z,34.47
2018-05-29T13:38:32.987Z,34.47
2018-05-29T13:41:01.879Z,34.63
2018-05-29T13:43:30.784Z,35.01
2018-05-29T13:45:59.664Z,35.31
2018-05-29T13:48:28.500Z,35.31
2018-05-29T13:50:57.363Z,35.43
2018-05-29T13:53:26.230Z,35.40
2018-05-29T13:55:55.155Z,35.36
2018-05-29T13:58:23.988Z,35.27
2018-05-29T14:00:52.824Z,35.15
2018-05-29T14:03:21.681Z,34.87
2018-05-29T14:05:50.499Z,34.61
2018-05-29T14:08:19.367Z,34.31
2018-05-29T14:10:48.219Z,34.32
2018-05-29T14:13:17.062Z,34.19
2018-05-29T14:15:45.936Z,34.06
2018-05-29T14:18:14.785Z,34.16
2018-05-29T14:20:43.639Z,34.30
2018-05-29T14:23:12.461Z,33.96
2018-05-29T14:25:41.297Z,34.22
2018-05-29T14:28:10.130Z,34.37
2018-05-29T14:30:39.020Z,34.23
2018-05-29T14:33:07.888Z,34.18
2018-05-29T14:35:36.725Z,34.26
2018-05-29T14:38:05.577Z,33.97
2018-05-29T14:40:34.560Z,34.11
2018-05-29T14:43:03.460Z,34.00
2018-05-29T14:45:32.351Z,33.86
2018-05-29T14:48:01.223Z,33.83
2018-05-29T14:50:30.123Z,33.76
2018-05-29T14:52:59.005Z,33.48
2018-05-29T14:55:27.923Z,33.63
2018-05-29T14:57:56.954Z,33.67
2018-05-29T15:00:25.921Z,33.62
2018-05-29T15:02:54.867Z,33.60
2018-05-29T15:05:23.731Z,33.32
2018-05-29T15:07:52.745Z,33.32
2018-05-29T15:10:21.625Z,33.28
2018-05-29T15:12:50.499Z,33.02
2018-05-29T15:15:19.350Z,32.97
2018-05-29T15:17:48.212Z,32.76
2018-05-29T15:20:17.415Z,32.66
2018-05-29T15:22:46.241Z,32.39
2018-05-29T15:25:15.143Z,32.13
2018-05-29T15:27:44.059Z,31.85
2018-05-29T15:30:12.962Z,31.55
2018-05-29T15:32:41.796Z,31.31
2018-05-29T15:35:10.631Z,31.35
2018-05-29T15:37:39.904Z,31.01
2018-05-29T15:40:08.743Z,30.80
2018-05-29T15:42:37.625Z,30.63
2018-05-29T15:45:06.477Z,30.32
2018-05-29T15:47:35.333Z,30.02
2018-05-29T15:50:04.274Z,29.72
2018-05-29T15:52:33.109Z,29.02
2018-05-29T15:55:02.016Z,28.12
2018-05-29T15:57:30.856Z,27.22
2018-05-29T15:59:59.816Z,26.63
2018-05-29T16:02:28.598Z,26.10
2018-05-29T16:04:57.474Z,25.57
2018-05-29T16:07:26.304Z,24.72
2018-05-29T16:09:55.151Z,24.38
2018-05-29T16:12:24.043Z,24.22
2018-05-29T16:14:52.897Z,24.06
2018-05-29T16:17:21.754Z,23.85
2018-05-29T16:19:50.799Z,23.85
2018-05-29T16:22:19.648Z,23.80
2018-05-29T16:24:48.578Z,23.82
2018-05-29T16:27:17.474Z,23.84
2018-05-29T16:29:46.313Z,23.69
2018-05-29T16:32:15.183Z,23.59
2018-05-29T16:34:44.048Z,23.47
2018-05-29T16:37:12.853Z,23.49
2018-05-29T16:39:41.727Z,23.69
2018-05-29T16:42:10.568Z,23.46
2018-05-29T16:44:39.444Z,23.44
2018-05-29T16:47:08.330Z,23.00
2018-05-29T16:49:37.174Z,22.97
2018-05-29T16:52:06.044Z,22.71
2018-05-29T16:54:34.886Z,22.57
2018-05-29T16:57:03.770Z,22.44
2018-05-29T16:59:32.638Z,22.49
2018-05-29T17:02:01.475Z,22.48
2018-05-29T17:04:30.341Z,22.36
2018-05-29T17:06:59.215Z,22.32
2018-05-29T17:09:28.066Z,22.31
2018-05-29T17:11:56.909Z,22.31
2018-05-29T17:14:25.790Z,22.16
2018-05-29T17:16:54.641Z,22.02
2018-05-29T17:19:23.499Z,21.87
2018-05-29T17:21:52.420Z,21.73
2018-05-29T17:24:21.227Z,21.80
2018-05-29T17:26:50.074Z,21.74
2018-05-29T17:29:18.953Z,21.92
2018-05-29T17:31:47.800Z,21.75
2018-05-29T17:34:22.887Z,21.78
2018-05-29T17:36:51.718Z,21.71
2018-05-29T17:39:20.608Z,21.63
2018-05-29T17:41:49.441Z,21.80
2018-05-29T17:44:18.320Z,21.76
2018-05-29T17:46:47.181Z,21.49
2018-05-29T17:49:16.019Z,21.45
2018-05-29T17:51:44.892Z,21.77
2018-05-29T17:54:13.762Z,21.51
2018-05-29T17:56:42.766Z,21.43
2018-05-29T17:59:11.593Z,21.77
2018-05-29T18:01:40.461Z,21.60
2018-05-29T18:04:09.353Z,21.62
2018-05-29T18:06:38.234Z,21.47
2018-05-29T18:09:07.091Z,21.37
2018-05-29T18:11:35.977Z,21.49
2018-05-29T18:14:04.889Z,21.44
2018-05-29T18:16:33.759Z,21.29
2018-05-29T18:19:02.588Z,21.38
2018-05-29T18:21:31.467Z,21.40
2018-05-29T18:24:00.354Z,21.50
2018-05-29T18:26:29.236Z,21.69
2018-05-29T18:28:58.081Z,21.91
2018-05-29T18:31:26.984Z,21.99
2018-05-29T18:33:55.813Z,21.84
2018-05-29T18:36:24.671Z,21.80
2018-05-29T18:38:53.989Z,22.02
2018-05-29T18:41:23.188Z,21.77
2018-05-29T18:43:52.040Z,21.66
2018-05-29T18:46:20.907Z,21.63
2018-05-29T18:48:49.753Z,21.62
2018-05-29T18:51:18.654Z,21.61
2018-05-29T18:53:47.426Z,21.66
2018-05-29T18:56:16.270Z,21.60
2018-05-29T18:58:45.141Z,21.58
2018-05-29T19:01:14.021Z,21.54
2018-05-29T19:03:42.907Z,21.56
2018-05-29T19:06:11.743Z,21.55
2018-05-29T19:08:40.662Z,21.86
2018-05-29T19:11:09.532Z,21.72
2018-05-29T19:13:38.402Z,21.71
2018-05-29T19:16:07.261Z,21.68
2018-05-29T19:18:36.146Z,21.68
2018-05-29T19:21:05.060Z,21.68
2018-05-29T19:23:34.442Z,21.90
2018-05-29T19:26:03.254Z,21.65
2018-05-29T19:28:32.164Z,21.60
2018-05-29T19:31:01.052Z,21.70
2018-05-29T19:33:29.920Z,21.64
2018-05-29T19:35:58.943Z,21.50
2018-05-29T19:38:27.804Z,21.54
2018-05-29T19:40:56.668Z,21.51
2018-05-29T19:43:25.575Z,21.54
2018-05-29T19:45:56.414Z,21.43
2018-05-29T19:48:25.255Z,21.26
2018-05-29T19:50:54.153Z,21.38
2018-05-29T19:53:22.964Z,21.28
2018-05-29T19:55:51.797Z,21.19
2018-05-29T19:58:20.683Z,21.28
2018-05-29T20:00:49.611Z,21.22
2018-05-29T20:03:18.470Z,21.32
2018-05-29T20:05:47.365Z,21.33
2018-05-29T20:08:16.246Z,21.34
2018-05-29T20:10:45.142Z,21.27
2018-05-29T20:13:14.000Z,21.30
2018-05-29T20:15:42.870Z,21.29
2018-05-29T20:18:11.701Z,21.25
2018-05-29T20:20:40.569Z,21.26
2018-05-29T20:23:09.447Z,21.23
2018-05-29T20:25:38.290Z,21.46
2018-05-29T20:28:07.164Z,21.37
2018-05-29T20:30:36.146Z,21.38
2018-05-29T20:33:05.249Z,21.42
2018-05-29T20:35:34.152Z,21.43
2018-05-29T20:38:03.044Z,21.53
2018-05-29T20:40:31.910Z,21.59
2018-05-29T20:43:00.751Z,21.17
2018-05-29T20:45:29.600Z,20.92
2018-05-29T20:47:58.614Z,20.84
2018-05-29T20:50:27.475Z,20.95
2018-05-29T20:52:56.396Z,21.01
2018-05-29T20:55:25.339Z,21.03
2018-05-29T20:57:54.146Z,21.00
2018-05-29T21:00:23.055Z,20.83
2018-05-29T21:02:51.917Z,21.14
2018-05-29T21:05:20.761Z,21.23
2018-05-29T21:07:49.606Z,21.13
2018-05-29T21:10:18.476Z,21.09
2018-05-29T21:12:47.417Z,21.03
2018-05-29T21:15:16.362Z,20.93
2018-05-29T21:17:45.258Z,20.96
2018-05-29T21:20:14.131Z,20.95
2018-05-29T21:22:42.986Z,20.88
2018-05-29T21:25:11.851Z,20.86
2018-05-29T21:27:40.722Z,20.92
2018-05-29T21:30:09.562Z,20.99
2018-05-29T21:32:38.449Z,20.96
2018-05-29T21:35:07.346Z,20.96
2018-05-29T21:37:36.223Z,20.86
2018-05-29T21:40:05.080Z,20.91
2018-05-29T21:42:33.937Z,20.89
2018-05-29T21:45:02.797Z,21.07
2018-05-29T21:47:31.746Z,20.85
2018-05-29T21:50:00.647Z,20.87
2018-05-29T21:52:29.500Z,20.87
2018-05-29T21:54:58.357Z,21.13
2018-05-29T21:57:27.291Z,20.82
2018-05-29T21:59:56.250Z,20.83
2018-05-29T22:02:25.078Z,20.75
2018-05-29T22:04:54.025Z,20.80
2018-05-29T22:07:22.899Z,20.76
2018-05-29T22:09:51.785Z,20.73
2018-05-29T22:12:20.651Z,21.10
2018-05-29T22:14:49.520Z,20.85
2018-05-29T22:17:18.345Z,20.88
2018-05-29T22:19:47.210Z,20.77
2018-05-29T22:22:16.208Z,20.80
2018-05-29T22:24:45.053Z,20.89
2018-05-29T22:27:13.892Z,20.90
2018-05-29T22:29:42.749Z,20.91
2018-05-29T22:32:11.599Z,20.90
2018-05-29T22:34:40.426Z,20.91
2018-05-29T22:37:09.286Z,20.97
2018-05-29T22:39:38.177Z,21.02
2018-05-29T22:42:06.971Z,21.04
2018-05-29T22:44:35.813Z,21.00
2018-05-29T22:47:04.665Z,21.06
2018-05-29T22:49:33.547Z,21.08
2018-05-29T22:52:02.383Z,21.08
2018-05-29T22:54:31.246Z,21.13
2018-05-29T22:57:00.115Z,21.07
2018-05-29T22:59:28.956Z,21.05
2018-05-29T23:01:57.807Z,21.07
2018-05-29T23:04:26.654Z,21.15
2018-05-29T23:06:55.500Z,21.15
2018-05-29T23:09:24.333Z,21.10
2018-05-29T23:11:53.182Z,21.11
2018-05-29T23:14:22.013Z,21.10
2018-05-29T23:16:50.883Z,21.08
2018-05-29T23:19:19.723Z,21.09
2018-05-29T23:21:48.634Z,21.14
2018-05-29T23:24:17.484Z,21.02
2018-05-29T23:26:46.316Z,20.92
2018-05-29T23:29:15.180Z,20.92
2018-05-29T23:31:44.053Z,20.93
2018-05-29T23:34:12.894Z,20.94
2018-05-29T23:36:41.772Z,20.84
2018-05-29T23:39:10.640Z,20.90
2018-05-29T23:41:39.468Z,20.94
2018-05-29T23:44:08.332Z,20.88
2018-05-29T23:46:37.189Z,20.87
2018-05-29T23:49:06.043Z,20.86
2018-05-29T23:51:34.886Z,21.14
2018-05-29T23:54:03.724Z,20.93
2018-05-29T23:56:32.567Z,21.21
2018-05-29T23:59:01.478Z,20.98
